»·PEaware :: N815M KSAC-KRDD

N815M :: KSAC-KRDD

FLIGHT INFORMATION

Flight Status: Arrived
Operator: Privately registered:
United States
More flights under this callsign
Pilot: Robert C. (30425)
Aircraft: BEECH AIRCRAFT DEBONAIR BONANZA
(BE33)
More flights by this aircraft type
Origin: KSAC Sacramento Executive
United States
Destination: KRDD Redding Mun
United States
More flights between these airports :: More routes between these airports
Route: ILA RBL
File this flight plan on PilotEdge
Remarks:
Altitude:
(Current/Filed)
4,500ft
Speed:
(Current/Filed)
150kts
Departed: 01-Sep-20 07:36 PM
Arrived: 01-Sep-20 08:29 PM
Distance/Time
Traveled:
125nm/0:53
Distance/Time
To Go:
Arrived

Flight Plot

Page will automatically refresh every two minutes.

Flight plan parsing failed; only flown route is shown


Map Options




Map Legend


Flown Route
Filed Route
Departure Airport
Arrival Airport
Navaid (VOR, NDB)
Fix

Horizontal Profiles

Position Reports

Time Latitude Longitude Heading Altitude Ground
Speed
01-Sep-20 19:15 38.520041 -121.495697 186 24ft 0kts
01-Sep-20 19:16 38.520041 -121.495697 186 24ft 0kts
01-Sep-20 19:17 38.520041 -121.495697 186 24ft 0kts
01-Sep-20 19:18 38.520041 -121.495697 186 24ft 0kts
01-Sep-20 19:19 38.520041 -121.495697 186 24ft 0kts
01-Sep-20 19:20 38.520041 -121.495697 186 24ft 0kts
01-Sep-20 19:21 38.520041 -121.495697 186 24ft 0kts
01-Sep-20 19:22 38.520041 -121.495697 186 24ft 0kts
01-Sep-20 19:23 38.520041 -121.495697 186 24ft 0kts
01-Sep-20 19:24 38.520041 -121.495697 186 24ft 0kts
01-Sep-20 19:25 38.520041 -121.495697 186 24ft 0kts
01-Sep-20 19:26 38.520041 -121.495697 186 24ft 0kts
01-Sep-20 19:27 38.520041 -121.495697 186 24ft 0kts
01-Sep-20 19:28 38.520041 -121.495697 186 24ft 0kts
01-Sep-20 19:29 38.520041 -121.495697 186 24ft 0kts
01-Sep-20 19:30 38.519691 -121.495472 100 24ft 6kts
01-Sep-20 19:31 38.518940 -121.494693 183 24ft 0kts
01-Sep-20 19:32 38.518940 -121.494693 183 24ft 0kts
01-Sep-20 19:33 38.518940 -121.494693 183 24ft 0kts
01-Sep-20 19:35 38.518940 -121.494693 183 24ft 0kts
01-Sep-20 19:36 38.512216 -121.486463 131 43ft 100kts
01-Sep-20 19:37 38.517953 -121.458497 33 1108ft 130kts
01-Sep-20 19:38 38.547513 -121.424692 41 1923ft 144kts
01-Sep-20 19:39 38.580648 -121.397530 36 2913ft 138kts
01-Sep-20 19:40 38.611706 -121.371349 38 3903ft 129kts
01-Sep-20 19:41 38.642341 -121.345317 35 4495ft 149kts
01-Sep-20 19:42 38.684382 -121.324486 2 4506ft 172kts
01-Sep-20 19:43 38.726959 -121.345286 298 4504ft 175kts
01-Sep-20 19:44 38.752651 -121.399614 299 4482ft 177kts
01-Sep-20 19:45 38.778244 -121.453761 299 4479ft 176kts
01-Sep-20 19:46 38.803806 -121.507906 299 4474ft 176kts
01-Sep-20 19:47 38.829315 -121.562043 299 4471ft 177kts
01-Sep-20 19:48 38.854821 -121.616241 299 4468ft 177kts
01-Sep-20 19:49 38.883432 -121.667500 333 4472ft 177kts
01-Sep-20 19:50 38.927187 -121.697550 332 4462ft 178kts
01-Sep-20 19:51 38.970637 -121.727767 332 4459ft 177kts
01-Sep-20 19:51 39.007235 -121.753378 332 4169ft 176kts
01-Sep-20 19:53 39.056205 -121.784978 336 2948ft 153kts
01-Sep-20 19:53 39.085562 -121.802740 336 2973ft 146kts
01-Sep-20 19:54 39.123579 -121.825565 336 3574ft 150kts
01-Sep-20 19:56 39.167088 -121.852115 336 4378ft 146kts
01-Sep-20 19:56 39.200027 -121.872317 336 4548ft 162kts
01-Sep-20 19:57 39.240109 -121.897029 336 4921ft 167kts
01-Sep-20 19:58 39.284364 -121.924123 336 4747ft 180kts
01-Sep-20 19:59 39.330196 -121.952102 336 4552ft 183kts
01-Sep-20 20:00 39.375752 -121.980009 336 4529ft 178kts
01-Sep-20 20:01 39.421190 -122.004792 341 4525ft 175kts
01-Sep-20 20:02 39.466533 -122.026781 341 4554ft 172kts
01-Sep-20 20:03 39.511700 -122.047873 343 4554ft 172kts
01-Sep-20 20:04 39.557211 -122.067618 343 4554ft 172kts
01-Sep-20 20:05 39.602307 -122.088159 341 4555ft 172kts
01-Sep-20 20:06 39.647451 -122.109998 341 4555ft 172kts
01-Sep-20 20:07 39.692339 -122.131715 341 4555ft 172kts
01-Sep-20 20:08 39.738181 -122.149836 345 4555ft 172kts
01-Sep-20 20:09 39.784122 -122.167515 345 4554ft 172kts
01-Sep-20 20:10 39.830066 -122.185171 345 4550ft 172kts
01-Sep-20 20:11 39.876325 -122.202007 350 4538ft 171kts
01-Sep-20 20:12 39.923019 -122.215372 349 4522ft 172kts
01-Sep-20 20:13 39.970056 -122.227679 350 4509ft 173kts
01-Sep-20 20:14 40.017437 -122.239440 351 4500ft 173kts
01-Sep-20 20:15 40.065055 -122.250046 354 4501ft 173kts
01-Sep-20 20:16 40.112841 -122.258972 354 4499ft 173kts
01-Sep-20 20:17 40.160625 -122.267441 355 4482ft 173kts
01-Sep-20 20:18 40.208439 -122.275063 355 4477ft 173kts
01-Sep-20 20:19 40.256838 -122.279459 359 4029ft 174kts
01-Sep-20 20:20 40.305132 -122.275300 7 3526ft 174kts
01-Sep-20 20:21 40.352960 -122.265052 10 2935ft 172kts
01-Sep-20 20:22 40.398269 -122.252840 10 2119ft 162kts
01-Sep-20 20:23 40.440754 -122.255422 341 1466ft 147kts
01-Sep-20 20:24 40.473649 -122.271856 348 1449ft 116kts
01-Sep-20 20:25 40.507160 -122.271615 359 1452ft 118kts
01-Sep-20 20:26 40.538404 -122.270793 342 1401ft 110kts
01-Sep-20 20:27 40.530901 -122.295649 164 906ft 121kts
01-Sep-20 20:28 40.510374 -122.294895 172 496ft 27kts
01-Sep-20 20:29 40.508344 -122.295959 295 496ft 0kts
01-Sep-20 20:30 40.507566 -122.298480 276 494ft 14kts
01-Sep-20 20:31 40.509223 -122.298837 278 496ft 0kts

Navigation Log

Ident Type
Flight plan parsing failed, navigation log unavailable